<?xml version="1.0"?>
<gpx xmlns="http://www.topografix.com/GPX/1/1" xmlns:xsi="http://www.w3.org/2001/XMLSchema-instance" xmlns:wptx1="http://www.garmin.com/xmlschemas/WaypointExtension/v1" xmlns:gpxtrx="http://www.garmin.com/xmlschemas/GpxExtensions/v3" xmlns:gpxtpx="http://www.garmin.com/xmlschemas/TrackPointExtension/v1" xmlns:gpxx="http://www.garmin.com/xmlschemas/GpxExtensions/v3" xmlns:trp="http://www.garmin.com/xmlschemas/TripExtensions/v1" xmlns:adv="http://www.garmin.com/xmlschemas/AdventuresExtensions/v1" xmlns:prs="http://www.garmin.com/xmlschemas/PressureExtension/v1" xmlns:tmd="http://www.garmin.com/xmlschemas/TripMetaDataExtensions/v1" xmlns:vptm="http://www.garmin.com/xmlschemas/ViaPointTransportationModeExtensions/v1" xmlns:ctx="http://www.garmin.com/xmlschemas/CreationTimeExtension/v1" xmlns:gpxacc="http://www.garmin.com/xmlschemas/AccelerationExtension/v1" xmlns:gpxpx="http://www.garmin.com/xmlschemas/PowerExtension/v1" xmlns:vidx1="http://www.garmin.com/xmlschemas/VideoExtension/v1" creator="Garmin Desktop App" version="1.1" xsi:schemaLocation="http://www.topografix.com/GPX/1/1 http://www.topografix.com/GPX/1/1/gpx.xsd http://www.garmin.com/xmlschemas/WaypointExtension/v1 http://www8.garmin.com/xmlschemas/WaypointExtensionv1.xsd http://www.garmin.com/xmlschemas/TrackPointExtension/v1 http://www.garmin.com/xmlschemas/TrackPointExtensionv1.xsd http://www.garmin.com/xmlschemas/GpxExtensions/v3 http://www8.garmin.com/xmlschemas/GpxExtensionsv3.xsd http://www.garmin.com/xmlschemas/ActivityExtension/v1 http://www8.garmin.com/xmlschemas/ActivityExtensionv1.xsd http://www.garmin.com/xmlschemas/AdventuresExtensions/v1 http://www8.garmin.com/xmlschemas/AdventuresExtensionv1.xsd http://www.garmin.com/xmlschemas/PressureExtension/v1 http://www.garmin.com/xmlschemas/PressureExtensionv1.xsd http://www.garmin.com/xmlschemas/TripExtensions/v1 http://www.garmin.com/xmlschemas/TripExtensionsv1.xsd http://www.garmin.com/xmlschemas/TripMetaDataExtensions/v1 http://www.garmin.com/xmlschemas/TripMetaDataExtensionsv1.xsd http://www.garmin.com/xmlschemas/ViaPointTransportationModeExtensions/v1 http://www.garmin.com/xmlschemas/ViaPointTransportationModeExtensionsv1.xsd http://www.garmin.com/xmlschemas/CreationTimeExtension/v1 http://www.garmin.com/xmlschemas/CreationTimeExtensionsv1.xsd http://www.garmin.com/xmlschemas/AccelerationExtension/v1 http://www.garmin.com/xmlschemas/AccelerationExtensionv1.xsd http://www.garmin.com/xmlschemas/PowerExtension/v1 http://www.garmin.com/xmlschemas/PowerExtensionv1.xsd http://www.garmin.com/xmlschemas/VideoExtension/v1 http://www.garmin.com/xmlschemas/VideoExtensionv1.xsd">

  <metadata>
    <link href="http://www.garmin.com">
      <text>Garmin International</text>
    </link>
    <time>2018-02-26T07:06:33Z</time>
    <bounds maxlat="13.508629873394966" maxlon="99.625869886949658" minlat="13.456084979698062" minlon="99.564292654395103"/>
  </metadata>

  <wpt lat="13.459868151694536" lon="99.625685149803758">
    <ele>73</ele>
    <name>DragonHillsHotel</name>
    <cmt>29-MAR-14 12:43:05</cmt>
    <desc>29-MAR-14 12:43:05</desc>
    <sym>Lodging</sym>
    <type>user</type>
    <extensions>
      <gpxx:WaypointExtension>
        <gpxx:DisplayMode>SymbolAndName</gpxx:DisplayMode>
      </gpxx:WaypointExtension>
      <wptx1:WaypointExtension>
        <wptx1:DisplayMode>SymbolAndName</wptx1:DisplayMode>
      </wptx1:WaypointExtension>
    </extensions>
  </wpt>

  <wpt lat="13.490457069128752" lon="99.59542253986001">
    <ele>88</ele>
    <name>WaterSunday</name>
    <cmt>30-MAR-14 10:48:18</cmt>
    <desc>30-MAR-14 10:48:18</desc>
    <sym>Drinking Water</sym>
    <type>user</type>
    <extensions>
      <gpxx:WaypointExtension>
        <gpxx:DisplayMode>SymbolOnly</gpxx:DisplayMode>
      </gpxx:WaypointExtension>
      <wptx1:WaypointExtension>
        <wptx1:DisplayMode>SymbolOnly</wptx1:DisplayMode>
      </wptx1:WaypointExtension>
    </extensions>
  </wpt>

  <trk>
    <name>Sunday 003</name>
    <extensions>
      <gpxx:TrackExtension>
        <gpxx:DisplayColor>Green</gpxx:DisplayColor>
      </gpxx:TrackExtension>
    </extensions>
    <trkseg>
      <trkpt lat="13.460733164101839" lon="99.625190868973732">
        <ele>81</ele>
        <time>2014-03-30T03:01:47Z</time>
      </trkpt>
      <trkpt lat="13.461308581754565" lon="99.624945446848869">
        <ele>80</ele>
        <time>2014-03-30T03:02:01Z</time>
      </trkpt>
      <trkpt lat="13.46148518845439" lon="99.623783547431231">
        <ele>79.800003051757812</ele>
        <time>2014-03-30T03:02:24Z</time>
      </trkpt>
      <trkpt lat="13.461538497358561" lon="99.623406948521733">
        <ele>79.199996948242188</ele>
        <time>2014-03-30T03:02:31Z</time>
      </trkpt>
      <trkpt lat="13.461547549813986" lon="99.621980180963874">
        <ele>80</ele>
        <time>2014-03-30T03:02:57Z</time>
      </trkpt>
      <trkpt lat="13.461210848763585" lon="99.620180921629071">
        <ele>82.599998474121094</ele>
        <time>2014-03-30T03:03:32Z</time>
      </trkpt>
      <trkpt lat="13.461240185424685" lon="99.620167091488838">
        <ele>82.599998474121094</ele>
        <time>2014-03-30T03:03:33Z</time>
      </trkpt>
      <trkpt lat="13.463729359209538" lon="99.620197769254446">
        <ele>80</ele>
        <time>2014-03-30T03:04:17Z</time>
      </trkpt>
      <trkpt lat="13.463159222155809" lon="99.616606459021568">
        <ele>83.599998474121094</ele>
        <time>2014-03-30T03:05:20Z</time>
      </trkpt>
      <trkpt lat="13.463372373953462" lon="99.615653101354837">
        <ele>85.400001525878906</ele>
        <time>2014-03-30T03:05:37Z</time>
      </trkpt>
      <trkpt lat="13.463369440287352" lon="99.615342384204268">
        <ele>85.599998474121094</ele>
        <time>2014-03-30T03:05:42Z</time>
      </trkpt>
      <trkpt lat="13.463434148579836" lon="99.614311913028359">
        <ele>86</ele>
        <time>2014-03-30T03:06:01Z</time>
      </trkpt>
      <trkpt lat="13.465193007141352" lon="99.614191045984626">
        <ele>82.400001525878906</ele>
        <time>2014-03-30T03:06:33Z</time>
      </trkpt>
      <trkpt lat="13.465304234996438" lon="99.613961381837726">
        <ele>83.400001525878906</ele>
        <time>2014-03-30T03:06:50Z</time>
      </trkpt>
      <trkpt lat="13.465499030426145" lon="99.613930033519864">
        <ele>82.199996948242188</ele>
        <time>2014-03-30T03:07:03Z</time>
      </trkpt>
      <trkpt lat="13.465119246393442" lon="99.61113047786057">
        <ele>85.400001525878906</ele>
        <time>2014-03-30T03:08:10Z</time>
      </trkpt>
      <trkpt lat="13.4675183147192" lon="99.610725715756416">
        <ele>84.199996948242188</ele>
        <time>2014-03-30T03:09:02Z</time>
      </trkpt>
      <trkpt lat="13.469701046124101" lon="99.610639046877623">
        <ele>87.800003051757812</ele>
        <time>2014-03-30T03:09:58Z</time>
      </trkpt>
      <trkpt lat="13.469824679195881" lon="99.610643992200494">
        <ele>87.599998474121094</ele>
        <time>2014-03-30T03:10:05Z</time>
      </trkpt>
      <trkpt lat="13.468085182830691" lon="99.610712639987469">
        <ele>85.800003051757812</ele>
        <time>2014-03-30T03:11:04Z</time>
      </trkpt>
      <trkpt lat="13.468254413455725" lon="99.612196572124958">
        <ele>84.599998474121094</ele>
        <time>2014-03-30T03:11:45Z</time>
      </trkpt>
      <trkpt lat="13.468248881399632" lon="99.611496767029166">
        <ele>84.800003051757812</ele>
        <time>2014-03-30T03:12:36Z</time>
      </trkpt>
      <trkpt lat="13.468035142868757" lon="99.61071465164423">
        <ele>86.199996948242188</ele>
        <time>2014-03-30T03:13:06Z</time>
      </trkpt>
      <trkpt lat="13.467411696910858" lon="99.610744658857584">
        <ele>85.599998474121094</ele>
        <time>2014-03-30T03:13:46Z</time>
      </trkpt>
      <trkpt lat="13.467734903097153" lon="99.610659498721361">
        <ele>86.599998474121094</ele>
        <time>2014-03-30T03:14:05Z</time>
      </trkpt>
      <trkpt lat="13.466268992051482" lon="99.606991242617369">
        <ele>88.400001525878906</ele>
        <time>2014-03-30T03:15:52Z</time>
      </trkpt>
      <trkpt lat="13.466403521597385" lon="99.6066355984658">
        <ele>89.400001525878906</ele>
        <time>2014-03-30T03:16:05Z</time>
      </trkpt>
      <trkpt lat="13.467256044968963" lon="99.606413478031754">
        <ele>90.199996948242188</ele>
        <time>2014-03-30T03:16:33Z</time>
      </trkpt>
      <trkpt lat="13.467320166528225" lon="99.605915173888206">
        <ele>91</ele>
        <time>2014-03-30T03:16:55Z</time>
      </trkpt>
      <trkpt lat="13.468840895220637" lon="99.605831438675523">
        <ele>92.599998474121094</ele>
        <time>2014-03-30T03:17:33Z</time>
      </trkpt>
      <trkpt lat="13.47233179025352" lon="99.605690035969019">
        <ele>89.400001525878906</ele>
        <time>2014-03-30T03:18:49Z</time>
      </trkpt>
      <trkpt lat="13.47257218323648" lon="99.606310212984681">
        <ele>88</ele>
        <time>2014-03-30T03:19:01Z</time>
      </trkpt>
      <trkpt lat="13.47297434695065" lon="99.606786807999015">
        <ele>87.199996948242188</ele>
        <time>2014-03-30T03:19:12Z</time>
      </trkpt>
      <trkpt lat="13.47328313626349" lon="99.607469262555242">
        <ele>87.599998474121094</ele>
        <time>2014-03-30T03:19:27Z</time>
      </trkpt>
      <trkpt lat="13.473241645842791" lon="99.607412768527865">
        <ele>89.599998474121094</ele>
        <time>2014-03-30T03:22:11Z</time>
      </trkpt>
      <trkpt lat="13.473120862618089" lon="99.606923935934901">
        <ele>89.800003051757812</ele>
        <time>2014-03-30T03:22:28Z</time>
      </trkpt>
      <trkpt lat="13.473057746887207" lon="99.606456896290183">
        <ele>90.599998474121094</ele>
        <time>2014-03-30T03:22:46Z</time>
      </trkpt>
      <trkpt lat="13.473704913631082" lon="99.605572856962681">
        <ele>90.400001525878906</ele>
        <time>2014-03-30T03:23:26Z</time>
      </trkpt>
      <trkpt lat="13.47401219420135" lon="99.604757046326995">
        <ele>91.599998474121094</ele>
        <time>2014-03-30T03:23:53Z</time>
      </trkpt>
      <trkpt lat="13.474011439830065" lon="99.604647494852543">
        <ele>90.800003051757812</ele>
        <time>2014-03-30T03:23:56Z</time>
      </trkpt>
      <trkpt lat="13.47269338555634" lon="99.600481940433383">
        <ele>92.599998474121094</ele>
        <time>2014-03-30T03:25:16Z</time>
      </trkpt>
      <trkpt lat="13.471222445368767" lon="99.598093098029494">
        <ele>95.599998474121094</ele>
        <time>2014-03-30T03:26:10Z</time>
      </trkpt>
      <trkpt lat="13.471028069034219" lon="99.597720187157393">
        <ele>96.400001525878906</ele>
        <time>2014-03-30T03:26:19Z</time>
      </trkpt>
      <trkpt lat="13.471147259697318" lon="99.597650365903974">
        <ele>97</ele>
        <time>2014-03-30T03:26:23Z</time>
      </trkpt>
      <trkpt lat="13.471608012914658" lon="99.597682049497962">
        <ele>95.199996948242188</ele>
        <time>2014-03-30T03:26:32Z</time>
      </trkpt>
      <trkpt lat="13.471865421161056" lon="99.596492070704699">
        <ele>95.199996948242188</ele>
        <time>2014-03-30T03:26:53Z</time>
      </trkpt>
      <trkpt lat="13.474559029564261" lon="99.595696963369846">
        <ele>91</ele>
        <time>2014-03-30T03:27:36Z</time>
      </trkpt>
      <trkpt lat="13.475094549357891" lon="99.595658574253321">
        <ele>84.599998474121094</ele>
        <time>2014-03-30T03:27:44Z</time>
      </trkpt>
      <trkpt lat="13.475519679486752" lon="99.595409631729126">
        <ele>84.199996948242188</ele>
        <time>2014-03-30T03:27:51Z</time>
      </trkpt>
      <trkpt lat="13.475971296429634" lon="99.595451457425952">
        <ele>82.400001525878906</ele>
        <time>2014-03-30T03:27:58Z</time>
      </trkpt>
      <trkpt lat="13.476148992776871" lon="99.595270911231637">
        <ele>82.199996948242188</ele>
        <time>2014-03-30T03:28:11Z</time>
      </trkpt>
      <trkpt lat="13.47632484510541" lon="99.594003483653069">
        <ele>86.199996948242188</ele>
        <time>2014-03-30T03:28:47Z</time>
      </trkpt>
      <trkpt lat="13.476911410689354" lon="99.594051595777273">
        <ele>85.400001525878906</ele>
        <time>2014-03-30T03:29:17Z</time>
      </trkpt>
      <trkpt lat="13.477026661857963" lon="99.59446532651782">
        <ele>82.599998474121094</ele>
        <time>2014-03-30T03:29:41Z</time>
      </trkpt>
      <trkpt lat="13.47745749168098" lon="99.594690715894103">
        <ele>82.800003051757812</ele>
        <time>2014-03-30T03:29:56Z</time>
      </trkpt>
      <trkpt lat="13.477484732866287" lon="99.594705803319812">
        <ele>82.599998474121094</ele>
        <time>2014-03-30T03:29:57Z</time>
      </trkpt>
      <trkpt lat="13.478421410545707" lon="99.594669761136174">
        <ele>82.199996948242188</ele>
        <time>2014-03-30T03:30:22Z</time>
      </trkpt>
      <trkpt lat="13.478860454633832" lon="99.594202721491456">
        <ele>80.599998474121094</ele>
        <time>2014-03-30T03:30:36Z</time>
      </trkpt>
      <trkpt lat="13.47928742878139" lon="99.593123132362962">
        <ele>80.800003051757812</ele>
        <time>2014-03-30T03:30:59Z</time>
      </trkpt>
      <trkpt lat="13.478923235088587" lon="99.592617452144623">
        <ele>81.599998474121094</ele>
        <time>2014-03-30T03:31:14Z</time>
      </trkpt>
      <trkpt lat="13.479017950594425" lon="99.592293072491884">
        <ele>83.599998474121094</ele>
        <time>2014-03-30T03:31:22Z</time>
      </trkpt>
      <trkpt lat="13.479052651673555" lon="99.59226306527853">
        <ele>83.599998474121094</ele>
        <time>2014-03-30T03:31:23Z</time>
      </trkpt>
      <trkpt lat="13.47940226085484" lon="99.592178575694561">
        <ele>82</ele>
        <time>2014-03-30T03:31:30Z</time>
      </trkpt>
      <trkpt lat="13.480484783649445" lon="99.592532627284527">
        <ele>78.400001525878906</ele>
        <time>2014-03-30T03:31:49Z</time>
      </trkpt>
      <trkpt lat="13.480952745303512" lon="99.592523239552975">
        <ele>78.599998474121094</ele>
        <time>2014-03-30T03:31:58Z</time>
      </trkpt>
      <trkpt lat="13.481106385588646" lon="99.592934874817729">
        <ele>79.599998474121094</ele>
        <time>2014-03-30T03:32:08Z</time>
      </trkpt>
      <trkpt lat="13.480939585715532" lon="99.593389425426722">
        <ele>79.199996948242188</ele>
        <time>2014-03-30T03:32:19Z</time>
      </trkpt>
      <trkpt lat="13.481000773608685" lon="99.593697711825371">
        <ele>78.599998474121094</ele>
        <time>2014-03-30T03:32:26Z</time>
      </trkpt>
      <trkpt lat="13.481195401400328" lon="99.594092583283782">
        <ele>78.800003051757812</ele>
        <time>2014-03-30T03:32:38Z</time>
      </trkpt>
      <trkpt lat="13.481422550976276" lon="99.594255443662405">
        <ele>79.800003051757812</ele>
        <time>2014-03-30T03:32:46Z</time>
      </trkpt>
      <trkpt lat="13.481689095497131" lon="99.594118734821677">
        <ele>79.800003051757812</ele>
        <time>2014-03-30T03:32:55Z</time>
      </trkpt>
      <trkpt lat="13.481723545119166" lon="99.593667453154922">
        <ele>78.599998474121094</ele>
        <time>2014-03-30T03:33:06Z</time>
      </trkpt>
      <trkpt lat="13.482112213969231" lon="99.59347927942872">
        <ele>78.199996948242188</ele>
        <time>2014-03-30T03:33:17Z</time>
      </trkpt>
      <trkpt lat="13.482236936688423" lon="99.592783497646451">
        <ele>80.199996948242188</ele>
        <time>2014-03-30T03:34:01Z</time>
      </trkpt>
      <trkpt lat="13.482109699398279" lon="99.593511465936899">
        <ele>78</ele>
        <time>2014-03-30T03:34:28Z</time>
      </trkpt>
      <trkpt lat="13.483265563845634" lon="99.593584639951587">
        <ele>79</ele>
        <time>2014-03-30T03:35:56Z</time>
      </trkpt>
      <trkpt lat="13.48463449627161" lon="99.593603415414691">
        <ele>77</ele>
        <time>2014-03-30T03:37:07Z</time>
      </trkpt>
      <trkpt lat="13.484592083841562" lon="99.594583427533507">
        <ele>83</ele>
        <time>2014-03-30T03:38:23Z</time>
      </trkpt>
      <trkpt lat="13.48474932834506" lon="99.594623828306794">
        <ele>83.199996948242188</ele>
        <time>2014-03-30T03:38:36Z</time>
      </trkpt>
      <trkpt lat="13.485096087679267" lon="99.595688246190548">
        <ele>84.400001525878906</ele>
        <time>2014-03-30T03:39:19Z</time>
      </trkpt>
      <trkpt lat="13.48540554754436" lon="99.596017319709063">
        <ele>84.199996948242188</ele>
        <time>2014-03-30T03:39:35Z</time>
      </trkpt>
      <trkpt lat="13.485657423734665" lon="99.596007093787193">
        <ele>84.199996948242188</ele>
        <time>2014-03-30T03:39:47Z</time>
      </trkpt>
      <trkpt lat="13.4856625366956" lon="99.595852950587869">
        <ele>84.599998474121094</ele>
        <time>2014-03-30T03:39:55Z</time>
      </trkpt>
      <trkpt lat="13.485669996589422" lon="99.595525050535798">
        <ele>82.400001525878906</ele>
        <time>2014-03-30T03:40:03Z</time>
      </trkpt>
      <trkpt lat="13.486197553575039" lon="99.594749556854367">
        <ele>81.199996948242188</ele>
        <time>2014-03-30T03:40:22Z</time>
      </trkpt>
      <trkpt lat="13.486344236880541" lon="99.594326857477427">
        <ele>80.199996948242188</ele>
        <time>2014-03-30T03:40:39Z</time>
      </trkpt>
      <trkpt lat="13.486389331519604" lon="99.594185538589954">
        <ele>79.199996948242188</ele>
        <time>2014-03-30T03:40:45Z</time>
      </trkpt>
      <trkpt lat="13.48706005141139" lon="99.593674745410681">
        <ele>74.400001525878906</ele>
        <time>2014-03-30T03:40:59Z</time>
      </trkpt>
      <trkpt lat="13.48814626224339" lon="99.593889405950904">
        <ele>74.199996948242188</ele>
        <time>2014-03-30T03:41:16Z</time>
      </trkpt>
      <trkpt lat="13.488494446501136" lon="99.594399277120829">
        <ele>77.800003051757812</ele>
        <time>2014-03-30T03:41:28Z</time>
      </trkpt>
      <trkpt lat="13.488945728167892" lon="99.594701444730163">
        <ele>80.400001525878906</ele>
        <time>2014-03-30T03:41:40Z</time>
      </trkpt>
      <trkpt lat="13.489203806966543" lon="99.595510214567184">
        <ele>84.599998474121094</ele>
        <time>2014-03-30T03:42:02Z</time>
      </trkpt>
      <trkpt lat="13.490429576486349" lon="99.595345929265022">
        <ele>83.199996948242188</ele>
        <time>2014-03-30T03:42:25Z</time>
      </trkpt>
      <trkpt lat="13.490578103810549" lon="99.595551621168852">
        <ele>84.400001525878906</ele>
        <time>2014-03-30T03:42:38Z</time>
      </trkpt>
      <trkpt lat="13.490572404116392" lon="99.595552291721106">
        <ele>84.400001525878906</ele>
        <time>2014-03-30T03:42:40Z</time>
      </trkpt>
      <trkpt lat="13.490470563992858" lon="99.595404099673033">
        <ele>87.400001525878906</ele>
        <time>2014-03-30T04:00:14Z</time>
      </trkpt>
      <trkpt lat="13.489567330107093" lon="99.595396807417274">
        <ele>79</ele>
        <time>2014-03-30T04:00:37Z</time>
      </trkpt>
      <trkpt lat="13.489603204652667" lon="99.594934629276395">
        <ele>78.400001525878906</ele>
        <time>2014-03-30T04:00:45Z</time>
      </trkpt>
      <trkpt lat="13.489612424746156" lon="99.592209840193391">
        <ele>62.400001525878906</ele>
        <time>2014-03-30T04:01:18Z</time>
      </trkpt>
      <trkpt lat="13.489586440846324" lon="99.592075729742646">
        <ele>62.200000762939453</ele>
        <time>2014-03-30T04:01:20Z</time>
      </trkpt>
      <trkpt lat="13.489470519125462" lon="99.592077322304249">
        <ele>64</ele>
        <time>2014-03-30T04:01:24Z</time>
      </trkpt>
      <trkpt lat="13.489264156669378" lon="99.591946816071868">
        <ele>63.200000762939453</ele>
        <time>2014-03-30T04:01:31Z</time>
      </trkpt>
      <trkpt lat="13.489543441683054" lon="99.591229576617479">
        <ele>59.799999237060547</ele>
        <time>2014-03-30T04:01:55Z</time>
      </trkpt>
      <trkpt lat="13.489963542670012" lon="99.590905364602804">
        <ele>60.599998474121094</ele>
        <time>2014-03-30T04:02:11Z</time>
      </trkpt>
      <trkpt lat="13.490968616679311" lon="99.590696403756738">
        <ele>58.599998474121094</ele>
        <time>2014-03-30T04:02:38Z</time>
      </trkpt>
      <trkpt lat="13.490773318335414" lon="99.589969608932734">
        <ele>63.400001525878906</ele>
        <time>2014-03-30T04:02:59Z</time>
      </trkpt>
      <trkpt lat="13.490369981154799" lon="99.588507050648332">
        <ele>64.400001525878906</ele>
        <time>2014-03-30T04:03:30Z</time>
      </trkpt>
      <trkpt lat="13.490377608686686" lon="99.588479474186897">
        <ele>64.400001525878906</ele>
        <time>2014-03-30T04:03:31Z</time>
      </trkpt>
      <trkpt lat="13.49203378893435" lon="99.588192729279399">
        <ele>59</ele>
        <time>2014-03-30T04:04:02Z</time>
      </trkpt>
      <trkpt lat="13.492113249376416" lon="99.588073287159204">
        <ele>59.799999237060547</ele>
        <time>2014-03-30T04:04:05Z</time>
      </trkpt>
      <trkpt lat="13.490965766832232" lon="99.583903709426522">
        <ele>69.199996948242188</ele>
        <time>2014-03-30T04:05:15Z</time>
      </trkpt>
      <trkpt lat="13.488933825865388" lon="99.578291606158018">
        <ele>93</ele>
        <time>2014-03-30T04:39:41Z</time>
      </trkpt>
      <trkpt lat="13.487942414358258" lon="99.578682202845812">
        <ele>103.199996948242188</ele>
        <time>2014-03-30T04:40:22Z</time>
      </trkpt>
      <trkpt lat="13.487836802378297" lon="99.57870558835566">
        <ele>103.599998474121094</ele>
        <time>2014-03-30T04:40:26Z</time>
      </trkpt>
      <trkpt lat="13.487723227590322" lon="99.57873148843646">
        <ele>103.800003051757812</ele>
        <time>2014-03-30T04:40:30Z</time>
      </trkpt>
      <trkpt lat="13.487350065261126" lon="99.578821258619428">
        <ele>102.800003051757812</ele>
        <time>2014-03-30T04:40:39Z</time>
      </trkpt>
      <trkpt lat="13.485964117571712" lon="99.578752610832453">
        <ele>108.599998474121094</ele>
        <time>2014-03-30T04:41:15Z</time>
      </trkpt>
      <trkpt lat="13.485034145414829" lon="99.578350950032473">
        <ele>117.599998474121094</ele>
        <time>2014-03-30T04:41:54Z</time>
      </trkpt>
      <trkpt lat="13.483649287372828" lon="99.577521895989776">
        <ele>123</ele>
        <time>2014-03-30T04:42:44Z</time>
      </trkpt>
      <trkpt lat="13.482755776494741" lon="99.577149823307991">
        <ele>124.400001525878906</ele>
        <time>2014-03-30T04:43:07Z</time>
      </trkpt>
      <trkpt lat="13.482484202831984" lon="99.577052090317011">
        <ele>123</ele>
        <time>2014-03-30T04:43:13Z</time>
      </trkpt>
      <trkpt lat="13.481839466840029" lon="99.577143788337708">
        <ele>117.599998474121094</ele>
        <time>2014-03-30T04:43:24Z</time>
      </trkpt>
      <trkpt lat="13.481470579281449" lon="99.577315952628851">
        <ele>109.800003051757812</ele>
        <time>2014-03-30T04:43:29Z</time>
      </trkpt>
      <trkpt lat="13.480359306558967" lon="99.577220063656569">
        <ele>107.800003051757812</ele>
        <time>2014-03-30T04:43:43Z</time>
      </trkpt>
      <trkpt lat="13.479902828112245" lon="99.576895013451576">
        <ele>112.599998474121094</ele>
        <time>2014-03-30T04:43:56Z</time>
      </trkpt>
      <trkpt lat="13.47973401658237" lon="99.576607597991824">
        <ele>115.199996948242188</ele>
        <time>2014-03-30T04:44:06Z</time>
      </trkpt>
      <trkpt lat="13.479606611654162" lon="99.576437193900347">
        <ele>115.800003051757812</ele>
        <time>2014-03-30T04:44:12Z</time>
      </trkpt>
      <trkpt lat="13.4791901987046" lon="99.576278021559119">
        <ele>113</ele>
        <time>2014-03-30T04:44:21Z</time>
      </trkpt>
      <trkpt lat="13.479126077145338" lon="99.576030671596527">
        <ele>117.400001525878906</ele>
        <time>2014-03-30T04:44:29Z</time>
      </trkpt>
      <trkpt lat="13.479107972234488" lon="99.57590670324862">
        <ele>117.199996948242188</ele>
        <time>2014-03-30T04:44:32Z</time>
      </trkpt>
      <trkpt lat="13.479063548147678" lon="99.575860435143113">
        <ele>115.400001525878906</ele>
        <time>2014-03-30T04:44:33Z</time>
      </trkpt>
      <trkpt lat="13.478713603690267" lon="99.575986415147781">
        <ele>118</ele>
        <time>2014-03-30T04:44:44Z</time>
      </trkpt>
      <trkpt lat="13.477653963491321" lon="99.576904149726033">
        <ele>115.400001525878906</ele>
        <time>2014-03-30T04:45:10Z</time>
      </trkpt>
      <trkpt lat="13.477643821388483" lon="99.576965589076281">
        <ele>115.199996948242188</ele>
        <time>2014-03-30T04:45:11Z</time>
      </trkpt>
      <trkpt lat="13.477649688720703" lon="99.577376553788781">
        <ele>112.400001525878906</ele>
        <time>2014-03-30T04:45:17Z</time>
      </trkpt>
      <trkpt lat="13.476726338267326" lon="99.578714305534959">
        <ele>100</ele>
        <time>2014-03-30T04:45:43Z</time>
      </trkpt>
      <trkpt lat="13.476518886163831" lon="99.578692177310586">
        <ele>103.199996948242188</ele>
        <time>2014-03-30T04:45:49Z</time>
      </trkpt>
      <trkpt lat="13.476187968626618" lon="99.578673485666513">
        <ele>104.400001525878906</ele>
        <time>2014-03-30T04:45:58Z</time>
      </trkpt>
      <trkpt lat="13.475904408842325" lon="99.578725537285209">
        <ele>104.800003051757812</ele>
        <time>2014-03-30T04:46:06Z</time>
      </trkpt>
      <trkpt lat="13.47576049156487" lon="99.578505679965019">
        <ele>106</ele>
        <time>2014-03-30T04:46:14Z</time>
      </trkpt>
      <trkpt lat="13.475268557667732" lon="99.578586313873529">
        <ele>111</ele>
        <time>2014-03-30T04:46:36Z</time>
      </trkpt>
      <trkpt lat="13.474818365648389" lon="99.579553166404366">
        <ele>103.400001525878906</ele>
        <time>2014-03-30T04:46:54Z</time>
      </trkpt>
      <trkpt lat="13.474676460027695" lon="99.58046805113554">
        <ele>101.199996948242188</ele>
        <time>2014-03-30T04:47:09Z</time>
      </trkpt>
      <trkpt lat="13.474466493353248" lon="99.580725375562906">
        <ele>104.599998474121094</ele>
        <time>2014-03-30T04:47:17Z</time>
      </trkpt>
      <trkpt lat="13.474446041509509" lon="99.580761753022671">
        <ele>104.400001525878906</ele>
        <time>2014-03-30T04:47:18Z</time>
      </trkpt>
      <trkpt lat="13.47407472319901" lon="99.581142710521817">
        <ele>96</ele>
        <time>2014-03-30T04:47:26Z</time>
      </trkpt>
      <trkpt lat="13.473551105707884" lon="99.580858312547207">
        <ele>105</ele>
        <time>2014-03-30T04:47:45Z</time>
      </trkpt>
      <trkpt lat="13.473514812067151" lon="99.580820761620998">
        <ele>105.599998474121094</ele>
        <time>2014-03-30T04:47:47Z</time>
      </trkpt>
      <trkpt lat="13.473416911438107" lon="99.580696793273091">
        <ele>104.599998474121094</ele>
        <time>2014-03-30T04:47:51Z</time>
      </trkpt>
      <trkpt lat="13.473304929211736" lon="99.580150041729212">
        <ele>106.800003051757812</ele>
        <time>2014-03-30T04:48:07Z</time>
      </trkpt>
      <trkpt lat="13.473494444042444" lon="99.579024184495211">
        <ele>114.199996948242188</ele>
        <time>2014-03-30T04:48:48Z</time>
      </trkpt>
      <trkpt lat="13.473328733816743" lon="99.578754454851151">
        <ele>117.199996948242188</ele>
        <time>2014-03-30T04:49:03Z</time>
      </trkpt>
      <trkpt lat="13.473255643621087" lon="99.57856141962111">
        <ele>115.800003051757812</ele>
        <time>2014-03-30T04:49:09Z</time>
      </trkpt>
      <trkpt lat="13.472926905378699" lon="99.578424962237477">
        <ele>117.400001525878906</ele>
        <time>2014-03-30T04:49:23Z</time>
      </trkpt>
      <trkpt lat="13.472182005643845" lon="99.578663092106581">
        <ele>114.400001525878906</ele>
        <time>2014-03-30T04:49:38Z</time>
      </trkpt>
      <trkpt lat="13.471909090876579" lon="99.578202674165368">
        <ele>122.400001525878906</ele>
        <time>2014-03-30T04:50:02Z</time>
      </trkpt>
      <trkpt lat="13.471601391211152" lon="99.578299904242158">
        <ele>120</ele>
        <time>2014-03-30T04:50:10Z</time>
      </trkpt>
      <trkpt lat="13.470996469259262" lon="99.578179959207773">
        <ele>121</ele>
        <time>2014-03-30T04:50:22Z</time>
      </trkpt>
      <trkpt lat="13.470746437087655" lon="99.578388500958681">
        <ele>116.199996948242188</ele>
        <time>2014-03-30T04:50:29Z</time>
      </trkpt>
      <trkpt lat="13.469795510172844" lon="99.578179288655519">
        <ele>121.400001525878906</ele>
        <time>2014-03-30T04:50:58Z</time>
      </trkpt>
      <trkpt lat="13.469743290916085" lon="99.578180462121964">
        <ele>121</ele>
        <time>2014-03-30T04:51:00Z</time>
      </trkpt>
      <trkpt lat="13.469007275998592" lon="99.578354135155678">
        <ele>117.800003051757812</ele>
        <time>2014-03-30T04:51:16Z</time>
      </trkpt>
      <trkpt lat="13.468640986829996" lon="99.578175852075219">
        <ele>123.800003051757812</ele>
        <time>2014-03-30T04:51:48Z</time>
      </trkpt>
      <trkpt lat="13.468406377360225" lon="99.578109970316291">
        <ele>123.400001525878906</ele>
        <time>2014-03-30T04:51:57Z</time>
      </trkpt>
      <trkpt lat="13.46758327446878" lon="99.578294707462192">
        <ele>124.199996948242188</ele>
        <time>2014-03-30T04:52:22Z</time>
      </trkpt>
      <trkpt lat="13.466864693909883" lon="99.578127572312951">
        <ele>129.800003051757812</ele>
        <time>2014-03-30T04:52:51Z</time>
      </trkpt>
      <trkpt lat="13.466723458841443" lon="99.578070994466543">
        <ele>130.199996948242188</ele>
        <time>2014-03-30T04:52:57Z</time>
      </trkpt>
      <trkpt lat="13.466391954571009" lon="99.578099576756358">
        <ele>124.199996948242188</ele>
        <time>2014-03-30T04:53:03Z</time>
      </trkpt>
      <trkpt lat="13.466322552412748" lon="99.578136038035154">
        <ele>127.599998474121094</ele>
        <time>2014-03-30T04:53:06Z</time>
      </trkpt>
      <trkpt lat="13.466215766966343" lon="99.578193537890911">
        <ele>128.800003051757812</ele>
        <time>2014-03-30T04:53:11Z</time>
      </trkpt>
      <trkpt lat="13.466108310967684" lon="99.578322032466531">
        <ele>129.800003051757812</ele>
        <time>2014-03-30T04:53:17Z</time>
      </trkpt>
      <trkpt lat="13.466137479990721" lon="99.578439211472869">
        <ele>127.800003051757812</ele>
        <time>2014-03-30T04:53:19Z</time>
      </trkpt>
      <trkpt lat="13.466567723080516" lon="99.57891614176333">
        <ele>120.599998474121094</ele>
        <time>2014-03-30T04:53:28Z</time>
      </trkpt>
      <trkpt lat="13.466954128816724" lon="99.579087132588029">
        <ele>118.400001525878906</ele>
        <time>2014-03-30T04:53:35Z</time>
      </trkpt>
      <trkpt lat="13.467189827933908" lon="99.579188218340278">
        <ele>115.800003051757812</ele>
        <time>2014-03-30T04:53:39Z</time>
      </trkpt>
      <trkpt lat="13.467619149014354" lon="99.579835552722216">
        <ele>119.400001525878906</ele>
        <time>2014-03-30T04:53:54Z</time>
      </trkpt>
      <trkpt lat="13.467646474018693" lon="99.57986899651587">
        <ele>119.199996948242188</ele>
        <time>2014-03-30T04:53:55Z</time>
      </trkpt>
      <trkpt lat="13.467838419601321" lon="99.580083154141903">
        <ele>115.599998474121094</ele>
        <time>2014-03-30T04:54:00Z</time>
      </trkpt>
      <trkpt lat="13.46795124001801" lon="99.580603921785951">
        <ele>115.800003051757812</ele>
        <time>2014-03-30T04:54:09Z</time>
      </trkpt>
      <trkpt lat="13.46801770851016" lon="99.580795867368579">
        <ele>112.800003051757812</ele>
        <time>2014-03-30T04:54:12Z</time>
      </trkpt>
      <trkpt lat="13.467918215319514" lon="99.581223176792264">
        <ele>114.199996948242188</ele>
        <time>2014-03-30T04:54:19Z</time>
      </trkpt>
      <trkpt lat="13.468159697949886" lon="99.581937314942479">
        <ele>109.199996948242188</ele>
        <time>2014-03-30T04:54:31Z</time>
      </trkpt>
      <trkpt lat="13.468254245817661" lon="99.582267394289374">
        <ele>103.599998474121094</ele>
        <time>2014-03-30T04:54:36Z</time>
      </trkpt>
      <trkpt lat="13.467797096818686" lon="99.582310728728771">
        <ele>105</ele>
        <time>2014-03-30T04:54:47Z</time>
      </trkpt>
      <trkpt lat="13.467434495687485" lon="99.582163039594889">
        <ele>107.599998474121094</ele>
        <time>2014-03-30T04:54:57Z</time>
      </trkpt>
      <trkpt lat="13.466937951743603" lon="99.582438888028264">
        <ele>107.199996948242188</ele>
        <time>2014-03-30T04:55:08Z</time>
      </trkpt>
      <trkpt lat="13.466426990926266" lon="99.582770057022572">
        <ele>104.800003051757812</ele>
        <time>2014-03-30T04:55:20Z</time>
      </trkpt>
      <trkpt lat="13.4662024397403" lon="99.582863347604871">
        <ele>101.400001525878906</ele>
        <time>2014-03-30T04:55:24Z</time>
      </trkpt>
      <trkpt lat="13.465182948857546" lon="99.582881620153785">
        <ele>110.199996948242188</ele>
        <time>2014-03-30T04:55:53Z</time>
      </trkpt>
      <trkpt lat="13.464043093845248" lon="99.582926966249943">
        <ele>112.800003051757812</ele>
        <time>2014-03-30T04:56:29Z</time>
      </trkpt>
      <trkpt lat="13.463037014007568" lon="99.583780830726027">
        <ele>107</ele>
        <time>2014-03-30T04:56:55Z</time>
      </trkpt>
      <trkpt lat="13.462553126737475" lon="99.584075706079602">
        <ele>101.800003051757812</ele>
        <time>2014-03-30T04:57:03Z</time>
      </trkpt>
      <trkpt lat="13.462121039628983" lon="99.585230648517609">
        <ele>106.199996948242188</ele>
        <time>2014-03-30T04:57:30Z</time>
      </trkpt>
      <trkpt lat="13.461948540061712" lon="99.585318993777037">
        <ele>108.400001525878906</ele>
        <time>2014-03-30T04:57:43Z</time>
      </trkpt>
      <trkpt lat="13.461948623880744" lon="99.585320837795734">
        <ele>108.400001525878906</ele>
        <time>2014-03-30T04:57:44Z</time>
      </trkpt>
      <trkpt lat="13.462110394611955" lon="99.585212711244822">
        <ele>106.599998474121094</ele>
        <time>2014-03-30T04:57:52Z</time>
      </trkpt>
      <trkpt lat="13.462885720655322" lon="99.585426365956664">
        <ele>104.199996948242188</ele>
        <time>2014-03-30T04:58:12Z</time>
      </trkpt>
      <trkpt lat="13.463943097740412" lon="99.585262583568692">
        <ele>107</ele>
        <time>2014-03-30T04:58:35Z</time>
      </trkpt>
      <trkpt lat="13.464498650282621" lon="99.585676901042461">
        <ele>101.599998474121094</ele>
        <time>2014-03-30T04:58:46Z</time>
      </trkpt>
      <trkpt lat="13.464717837050557" lon="99.58578972145915">
        <ele>97.199996948242188</ele>
        <time>2014-03-30T04:58:49Z</time>
      </trkpt>
      <trkpt lat="13.464765194803476" lon="99.58592114970088">
        <ele>97.199996948242188</ele>
        <time>2014-03-30T04:58:51Z</time>
      </trkpt>
      <trkpt lat="13.464557742699981" lon="99.586378885433078">
        <ele>101.199996948242188</ele>
        <time>2014-03-30T04:59:01Z</time>
      </trkpt>
      <trkpt lat="13.464246522635221" lon="99.587056394666433">
        <ele>102.400001525878906</ele>
        <time>2014-03-30T04:59:17Z</time>
      </trkpt>
      <trkpt lat="13.464242918416858" lon="99.587256303057075">
        <ele>103.599998474121094</ele>
        <time>2014-03-30T04:59:22Z</time>
      </trkpt>
      <trkpt lat="13.464349871501327" lon="99.587503066286445">
        <ele>103</ele>
        <time>2014-03-30T04:59:28Z</time>
      </trkpt>
      <trkpt lat="13.464540727436543" lon="99.587506167590618">
        <ele>101.800003051757812</ele>
        <time>2014-03-30T04:59:35Z</time>
      </trkpt>
      <trkpt lat="13.464399073272943" lon="99.587975218892097">
        <ele>104</ele>
        <time>2014-03-30T04:59:58Z</time>
      </trkpt>
      <trkpt lat="13.464021217077971" lon="99.589274413883686">
        <ele>104.199996948242188</ele>
        <time>2014-03-30T05:00:55Z</time>
      </trkpt>
      <trkpt lat="13.463711589574814" lon="99.590290552005172">
        <ele>103.199996948242188</ele>
        <time>2014-03-30T05:02:05Z</time>
      </trkpt>
      <trkpt lat="13.463657945394516" lon="99.591151708737016">
        <ele>102.199996948242188</ele>
        <time>2014-03-30T05:02:25Z</time>
      </trkpt>
      <trkpt lat="13.463234407827258" lon="99.592160386964679">
        <ele>103.599998474121094</ele>
        <time>2014-03-30T05:02:50Z</time>
      </trkpt>
      <trkpt lat="13.463833210989833" lon="99.59297058172524">
        <ele>104.199996948242188</ele>
        <time>2014-03-30T05:03:10Z</time>
      </trkpt>
      <trkpt lat="13.464255826547742" lon="99.593839449808002">
        <ele>105.400001525878906</ele>
        <time>2014-03-30T05:03:29Z</time>
      </trkpt>
      <trkpt lat="13.46438767388463" lon="99.594105072319508">
        <ele>105.599998474121094</ele>
        <time>2014-03-30T05:03:35Z</time>
      </trkpt>
      <trkpt lat="13.46483719535172" lon="99.594985004514456">
        <ele>104.800003051757812</ele>
        <time>2014-03-30T05:03:56Z</time>
      </trkpt>
      <trkpt lat="13.464780701324344" lon="99.596378663554788">
        <ele>106.400001525878906</ele>
        <time>2014-03-30T05:04:24Z</time>
      </trkpt>
      <trkpt lat="13.464524550363421" lon="99.598709587007761">
        <ele>104.400001525878906</ele>
        <time>2014-03-30T05:05:08Z</time>
      </trkpt>
      <trkpt lat="13.464207630604506" lon="99.600193602964282">
        <ele>104.400001525878906</ele>
        <time>2014-03-30T05:05:37Z</time>
      </trkpt>
      <trkpt lat="13.464140240103006" lon="99.600500129163265">
        <ele>104</ele>
        <time>2014-03-30T05:05:43Z</time>
      </trkpt>
      <trkpt lat="13.463882245123386" lon="99.60106716491282">
        <ele>103.199996948242188</ele>
        <time>2014-03-30T05:05:55Z</time>
      </trkpt>
      <trkpt lat="13.462685476988554" lon="99.601928489282727">
        <ele>102.800003051757812</ele>
        <time>2014-03-30T05:06:24Z</time>
      </trkpt>
      <trkpt lat="13.461818201467395" lon="99.602538524195552">
        <ele>101.800003051757812</ele>
        <time>2014-03-30T05:06:44Z</time>
      </trkpt>
      <trkpt lat="13.461448391899467" lon="99.602839602157474">
        <ele>99</ele>
        <time>2014-03-30T05:06:55Z</time>
      </trkpt>
      <trkpt lat="13.461594739928842" lon="99.602473648265004">
        <ele>100.199996948242188</ele>
        <time>2014-03-30T05:07:12Z</time>
      </trkpt>
      <trkpt lat="13.459768490865827" lon="99.601621124893427">
        <ele>103</ele>
        <time>2014-03-30T05:08:02Z</time>
      </trkpt>
      <trkpt lat="13.459742339327931" lon="99.601628333330154">
        <ele>103</ele>
        <time>2014-03-30T05:08:03Z</time>
      </trkpt>
      <trkpt lat="13.45885151065886" lon="99.603097261860967">
        <ele>102</ele>
        <time>2014-03-30T05:08:46Z</time>
      </trkpt>
      <trkpt lat="13.458190178498626" lon="99.603736801072955">
        <ele>102.199996948242188</ele>
        <time>2014-03-30T05:09:05Z</time>
      </trkpt>
      <trkpt lat="13.457793714478612" lon="99.603875940665603">
        <ele>100.800003051757812</ele>
        <time>2014-03-30T05:09:14Z</time>
      </trkpt>
      <trkpt lat="13.457259703427553" lon="99.603691874071956">
        <ele>104.599998474121094</ele>
        <time>2014-03-30T05:09:29Z</time>
      </trkpt>
      <trkpt lat="13.456762991845608" lon="99.603818692266941">
        <ele>104.800003051757812</ele>
        <time>2014-03-30T05:09:42Z</time>
      </trkpt>
      <trkpt lat="13.456433415412903" lon="99.603904271498322">
        <ele>104</ele>
        <time>2014-03-30T05:09:51Z</time>
      </trkpt>
      <trkpt lat="13.456225376576185" lon="99.604109963402152">
        <ele>104.199996948242188</ele>
        <time>2014-03-30T05:10:00Z</time>
      </trkpt>
      <trkpt lat="13.456172151491046" lon="99.604248683899641">
        <ele>103.599998474121094</ele>
        <time>2014-03-30T05:10:04Z</time>
      </trkpt>
      <trkpt lat="13.456555958837271" lon="99.60525375790894">
        <ele>105.400001525878906</ele>
        <time>2014-03-30T05:10:36Z</time>
      </trkpt>
      <trkpt lat="13.456518575549126" lon="99.605676792562008">
        <ele>105</ele>
        <time>2014-03-30T05:10:46Z</time>
      </trkpt>
      <trkpt lat="13.4562505222857" lon="99.606257323175669">
        <ele>104.599998474121094</ele>
        <time>2014-03-30T05:11:02Z</time>
      </trkpt>
      <trkpt lat="13.456084979698062" lon="99.606625204905868">
        <ele>104.199996948242188</ele>
        <time>2014-03-30T05:11:12Z</time>
      </trkpt>
      <trkpt lat="13.456713790073991" lon="99.60788743570447">
        <ele>104.800003051757812</ele>
        <time>2014-03-30T05:11:45Z</time>
      </trkpt>
      <trkpt lat="13.457779129967093" lon="99.6102240588516">
        <ele>102.800003051757812</ele>
        <time>2014-03-30T05:12:33Z</time>
      </trkpt>
      <trkpt lat="13.458147095516324" lon="99.610856557264924">
        <ele>101.400001525878906</ele>
        <time>2014-03-30T05:12:48Z</time>
      </trkpt>
      <trkpt lat="13.458222700282931" lon="99.611699692904949">
        <ele>101.599998474121094</ele>
        <time>2014-03-30T05:13:16Z</time>
      </trkpt>
      <trkpt lat="13.456703396514058" lon="99.6115986071527">
        <ele>101.599998474121094</ele>
        <time>2014-03-30T05:14:01Z</time>
      </trkpt>
      <trkpt lat="13.456697780638933" lon="99.611987695097923">
        <ele>97.199996948242188</ele>
        <time>2014-03-30T05:14:09Z</time>
      </trkpt>
      <trkpt lat="13.456879165023565" lon="99.612157763913274">
        <ele>98.199996948242188</ele>
        <time>2014-03-30T05:14:15Z</time>
      </trkpt>
      <trkpt lat="13.45694487914443" lon="99.612466637045145">
        <ele>97</ele>
        <time>2014-03-30T05:14:21Z</time>
      </trkpt>
      <trkpt lat="13.45709097571671" lon="99.614053247496486">
        <ele>95.800003051757812</ele>
        <time>2014-03-30T05:14:51Z</time>
      </trkpt>
      <trkpt lat="13.457102961838245" lon="99.614203367382288">
        <ele>95.199996948242188</ele>
        <time>2014-03-30T05:14:54Z</time>
      </trkpt>
      <trkpt lat="13.457129281014204" lon="99.614906860515475">
        <ele>93.400001525878906</ele>
        <time>2014-03-30T05:15:07Z</time>
      </trkpt>
      <trkpt lat="13.456963654607534" lon="99.615258816629648">
        <ele>94.199996948242188</ele>
        <time>2014-03-30T05:15:17Z</time>
      </trkpt>
      <trkpt lat="13.456947728991508" lon="99.615335846319795">
        <ele>93</ele>
        <time>2014-03-30T05:15:19Z</time>
      </trkpt>
      <trkpt lat="13.457186697050929" lon="99.615884106606245">
        <ele>93</ele>
        <time>2014-03-30T05:15:30Z</time>
      </trkpt>
      <trkpt lat="13.457326171919703" lon="99.615807412192225">
        <ele>94.599998474121094</ele>
        <time>2014-03-30T05:15:36Z</time>
      </trkpt>
      <trkpt lat="13.458144078031182" lon="99.61545386351645">
        <ele>93.599998474121094</ele>
        <time>2014-03-30T05:16:00Z</time>
      </trkpt>
      <trkpt lat="13.457511411979795" lon="99.615644719451666">
        <ele>94.199996948242188</ele>
        <time>2014-03-30T05:16:35Z</time>
      </trkpt>
      <trkpt lat="13.457630015909672" lon="99.615692580118775">
        <ele>94</ele>
        <time>2014-03-30T05:16:42Z</time>
      </trkpt>
      <trkpt lat="13.457536641508341" lon="99.615794755518436">
        <ele>94.800003051757812</ele>
        <time>2014-03-30T05:16:54Z</time>
      </trkpt>
      <trkpt lat="13.457629596814513" lon="99.615931464359164">
        <ele>94.199996948242188</ele>
        <time>2014-03-30T05:17:05Z</time>
      </trkpt>
      <trkpt lat="13.457513172179461" lon="99.616300351917744">
        <ele>92.599998474121094</ele>
        <time>2014-03-30T05:17:17Z</time>
      </trkpt>
      <trkpt lat="13.458145670592785" lon="99.616484753787518">
        <ele>93</ele>
        <time>2014-03-30T05:17:38Z</time>
      </trkpt>
      <trkpt lat="13.458136115223169" lon="99.617326045408845">
        <ele>92.800003051757812</ele>
        <time>2014-03-30T05:18:30Z</time>
      </trkpt>
      <trkpt lat="13.458293695002794" lon="99.61742109619081">
        <ele>91.199996948242188</ele>
        <time>2014-03-30T05:18:43Z</time>
      </trkpt>
      <trkpt lat="13.459234898909926" lon="99.624677896499634">
        <ele>86.199996948242188</ele>
        <time>2014-03-30T05:21:02Z</time>
      </trkpt>
      <trkpt lat="13.459289381280541" lon="99.625100344419479">
        <ele>85.800003051757812</ele>
        <time>2014-03-30T05:21:10Z</time>
      </trkpt>
      <trkpt lat="13.459591632708907" lon="99.625225653871894">
        <ele>86.800003051757812</ele>
        <time>2014-03-30T05:21:18Z</time>
      </trkpt>
      <trkpt lat="13.460245253518224" lon="99.625395219773054">
        <ele>86.199996948242188</ele>
        <time>2014-03-30T05:21:33Z</time>
      </trkpt>
      <trkpt lat="13.460223795846105" lon="99.625619519501925">
        <ele>85</ele>
        <time>2014-03-30T05:21:38Z</time>
      </trkpt>
      <trkpt lat="13.459760863333941" lon="99.625869886949658">
        <ele>86.800003051757812</ele>
        <time>2014-03-30T05:21:53Z</time>
      </trkpt>
      <trkpt lat="13.459761030972004" lon="99.625867791473866">
        <ele>86.800003051757812</ele>
        <time>2014-03-30T05:21:54Z</time>
      </trkpt>
      <trkpt lat="13.459761030972004" lon="99.625867791473866">
        <ele>84.599998474121094</ele>
        <time>2014-03-30T05:22:10Z</time>
      </trkpt>
    </trkseg>
  </trk>

  <trk>
    <name>SundayFRBloop</name>
    <extensions>
      <gpxx:TrackExtension>
        <gpxx:DisplayColor>DarkGreen</gpxx:DisplayColor>
      </gpxx:TrackExtension>
    </extensions>
    <trkseg>
      <trkpt lat="13.490322204306722" lon="99.581455187872052">
        <ele>72</ele>
        <time>2014-03-30T04:06:02Z</time>
      </trkpt>
      <trkpt lat="13.490450363606215" lon="99.581365585327148">
        <ele>73.400001525878906</ele>
        <time>2014-03-30T04:06:08Z</time>
      </trkpt>
      <trkpt lat="13.494599154219031" lon="99.581527104601264">
        <ele>62.400001525878906</ele>
        <time>2014-03-30T04:07:35Z</time>
      </trkpt>
      <trkpt lat="13.495337851345539" lon="99.581555854529142">
        <ele>57</ele>
        <time>2014-03-30T04:07:46Z</time>
      </trkpt>
      <trkpt lat="13.495844872668386" lon="99.581462983042002">
        <ele>57.799999237060547</ele>
        <time>2014-03-30T04:07:54Z</time>
      </trkpt>
      <trkpt lat="13.496239744126797" lon="99.580707522109151">
        <ele>58.400001525878906</ele>
        <time>2014-03-30T04:08:08Z</time>
      </trkpt>
      <trkpt lat="13.496384918689728" lon="99.579762713983655">
        <ele>58.400001525878906</ele>
        <time>2014-03-30T04:08:22Z</time>
      </trkpt>
      <trkpt lat="13.496659090742469" lon="99.57904907874763">
        <ele>61.200000762939453</ele>
        <time>2014-03-30T04:08:34Z</time>
      </trkpt>
      <trkpt lat="13.497020853683352" lon="99.578356146812439">
        <ele>58.200000762939453</ele>
        <time>2014-03-30T04:08:46Z</time>
      </trkpt>
      <trkpt lat="13.497411953285336" lon="99.578229077160358">
        <ele>61</ele>
        <time>2014-03-30T04:08:53Z</time>
      </trkpt>
      <trkpt lat="13.497774973511696" lon="99.578148359432817">
        <ele>59.200000762939453</ele>
        <time>2014-03-30T04:08:59Z</time>
      </trkpt>
      <trkpt lat="13.501478182151914" lon="99.577616946771741">
        <ele>60</ele>
        <time>2014-03-30T04:10:26Z</time>
      </trkpt>
      <trkpt lat="13.500461708754301" lon="99.575327429920435">
        <ele>62</ele>
        <time>2014-03-30T04:11:20Z</time>
      </trkpt>
      <trkpt lat="13.500529685989022" lon="99.575299099087715">
        <ele>59</ele>
        <time>2014-03-30T04:11:30Z</time>
      </trkpt>
      <trkpt lat="13.502062484622002" lon="99.57553437910974">
        <ele>56.400001525878906</ele>
        <time>2014-03-30T04:12:00Z</time>
      </trkpt>
      <trkpt lat="13.502354677766562" lon="99.575823973864317">
        <ele>58.599998474121094</ele>
        <time>2014-03-30T04:12:08Z</time>
      </trkpt>
      <trkpt lat="13.502528686076403" lon="99.576077610254288">
        <ele>57.599998474121094</ele>
        <time>2014-03-30T04:12:13Z</time>
      </trkpt>
      <trkpt lat="13.503075605258346" lon="99.576416574418545">
        <ele>57.200000762939453</ele>
        <time>2014-03-30T04:12:23Z</time>
      </trkpt>
      <trkpt lat="13.504348816350102" lon="99.576301490888">
        <ele>56.799999237060547</ele>
        <time>2014-03-30T04:12:43Z</time>
      </trkpt>
      <trkpt lat="13.506108010187745" lon="99.576473403722048">
        <ele>57</ele>
        <time>2014-03-30T04:13:11Z</time>
      </trkpt>
      <trkpt lat="13.508362993597984" lon="99.57779380492866">
        <ele>57</ele>
        <time>2014-03-30T04:13:55Z</time>
      </trkpt>
      <trkpt lat="13.508579079061747" lon="99.578147269785404">
        <ele>57.599998474121094</ele>
        <time>2014-03-30T04:14:03Z</time>
      </trkpt>
      <trkpt lat="13.508629873394966" lon="99.57892787642777">
        <ele>60.799999237060547</ele>
        <time>2014-03-30T04:14:25Z</time>
      </trkpt>
      <trkpt lat="13.508524261415005" lon="99.578090943396091">
        <ele>59.599998474121094</ele>
        <time>2014-03-30T04:14:48Z</time>
      </trkpt>
      <trkpt lat="13.508297950029373" lon="99.577775616198778">
        <ele>59.799999237060547</ele>
        <time>2014-03-30T04:14:57Z</time>
      </trkpt>
      <trkpt lat="13.505791593343019" lon="99.576395284384489">
        <ele>59.200000762939453</ele>
        <time>2014-03-30T04:15:46Z</time>
      </trkpt>
      <trkpt lat="13.505248529836535" lon="99.576341891661286">
        <ele>59</ele>
        <time>2014-03-30T04:16:01Z</time>
      </trkpt>
      <trkpt lat="13.505737530067563" lon="99.575770413503051">
        <ele>59.200000762939453</ele>
        <time>2014-03-30T04:16:17Z</time>
      </trkpt>
      <trkpt lat="13.50630565546453" lon="99.575613420456648">
        <ele>57.799999237060547</ele>
        <time>2014-03-30T04:16:29Z</time>
      </trkpt>
      <trkpt lat="13.507222048938274" lon="99.574310118332505">
        <ele>59</ele>
        <time>2014-03-30T04:16:54Z</time>
      </trkpt>
      <trkpt lat="13.507113000378013" lon="99.573924718424678">
        <ele>58.599998474121094</ele>
        <time>2014-03-30T04:17:00Z</time>
      </trkpt>
      <trkpt lat="13.505907515063882" lon="99.572992315515876">
        <ele>60</ele>
        <time>2014-03-30T04:17:24Z</time>
      </trkpt>
      <trkpt lat="13.505991920828819" lon="99.572629882022738">
        <ele>59.400001525878906</ele>
        <time>2014-03-30T04:17:30Z</time>
      </trkpt>
      <trkpt lat="13.506297022104263" lon="99.572312459349632">
        <ele>59.799999237060547</ele>
        <time>2014-03-30T04:17:37Z</time>
      </trkpt>
      <trkpt lat="13.506318563595414" lon="99.572188071906567">
        <ele>59.599998474121094</ele>
        <time>2014-03-30T04:17:39Z</time>
      </trkpt>
      <trkpt lat="13.505210811272264" lon="99.571523638442159">
        <ele>61.799999237060547</ele>
        <time>2014-03-30T04:18:02Z</time>
      </trkpt>
      <trkpt lat="13.505156999453902" lon="99.571407213807106">
        <ele>61.200000762939453</ele>
        <time>2014-03-30T04:18:04Z</time>
      </trkpt>
      <trkpt lat="13.504974357783794" lon="99.568886607885361">
        <ele>67</ele>
        <time>2014-03-30T04:18:51Z</time>
      </trkpt>
      <trkpt lat="13.50582436658442" lon="99.568771943449974">
        <ele>62.400001525878906</ele>
        <time>2014-03-30T04:19:17Z</time>
      </trkpt>
      <trkpt lat="13.505908017978072" lon="99.568051937967539">
        <ele>62.799999237060547</ele>
        <time>2014-03-30T04:19:30Z</time>
      </trkpt>
      <trkpt lat="13.50621622055769" lon="99.567809700965881">
        <ele>61.799999237060547</ele>
        <time>2014-03-30T04:19:37Z</time>
      </trkpt>
      <trkpt lat="13.506233906373382" lon="99.567517088726163">
        <ele>64.199996948242188</ele>
        <time>2014-03-30T04:19:48Z</time>
      </trkpt>
      <trkpt lat="13.501835502684116" lon="99.566926080733538">
        <ele>75</ele>
        <time>2014-03-30T04:22:31Z</time>
      </trkpt>
      <trkpt lat="13.501565689221025" lon="99.566742684692144">
        <ele>75.400001525878906</ele>
        <time>2014-03-30T04:22:45Z</time>
      </trkpt>
      <trkpt lat="13.502219226211309" lon="99.566980563104153">
        <ele>74.800003051757812</ele>
        <time>2014-03-30T04:23:09Z</time>
      </trkpt>
      <trkpt lat="13.502938728779554" lon="99.567042673006654">
        <ele>73.599998474121094</ele>
        <time>2014-03-30T04:23:34Z</time>
      </trkpt>
      <trkpt lat="13.501856960356236" lon="99.566923398524523">
        <ele>75</ele>
        <time>2014-03-30T04:24:03Z</time>
      </trkpt>
      <trkpt lat="13.501536268740892" lon="99.566693902015686">
        <ele>76.400001525878906</ele>
        <time>2014-03-30T04:24:15Z</time>
      </trkpt>
      <trkpt lat="13.501620590686798" lon="99.565608026459813">
        <ele>77.400001525878906</ele>
        <time>2014-03-30T04:25:07Z</time>
      </trkpt>
      <trkpt lat="13.501630648970604" lon="99.564292654395103">
        <ele>76.400001525878906</ele>
        <time>2014-03-30T04:25:49Z</time>
      </trkpt>
      <trkpt lat="13.497148510068655" lon="99.564363481476903">
        <ele>84.400001525878906</ele>
        <time>2014-03-30T04:27:06Z</time>
      </trkpt>
      <trkpt lat="13.494095904752612" lon="99.565352629870176">
        <ele>101.400001525878906</ele>
        <time>2014-03-30T04:28:50Z</time>
      </trkpt>
      <trkpt lat="13.493772614747286" lon="99.565294375643134">
        <ele>106.199996948242188</ele>
        <time>2014-03-30T04:29:19Z</time>
      </trkpt>
      <trkpt lat="13.493709499016404" lon="99.564897576346993">
        <ele>101.800003051757812</ele>
        <time>2014-03-30T04:29:30Z</time>
      </trkpt>
      <trkpt lat="13.493334576487541" lon="99.564333138987422">
        <ele>99.800003051757812</ele>
        <time>2014-03-30T04:29:47Z</time>
      </trkpt>
      <trkpt lat="13.493345640599728" lon="99.56432769075036">
        <ele>99.599998474121094</ele>
        <time>2014-03-30T04:29:48Z</time>
      </trkpt>
      <trkpt lat="13.49372249096632" lon="99.564904952421784">
        <ele>101.800003051757812</ele>
        <time>2014-03-30T04:30:18Z</time>
      </trkpt>
      <trkpt lat="13.493781834840775" lon="99.565318683162332">
        <ele>106.199996948242188</ele>
        <time>2014-03-30T04:30:36Z</time>
      </trkpt>
      <trkpt lat="13.493873197585344" lon="99.565370231866837">
        <ele>106</ele>
        <time>2014-03-30T04:30:41Z</time>
      </trkpt>
      <trkpt lat="13.495154455304146" lon="99.56494526937604">
        <ele>88.199996948242188</ele>
        <time>2014-03-30T04:31:41Z</time>
      </trkpt>
      <trkpt lat="13.494455069303513" lon="99.565294627100229">
        <ele>98.199996948242188</ele>
        <time>2014-03-30T04:32:27Z</time>
      </trkpt>
      <trkpt lat="13.494968377053738" lon="99.566134158521891">
        <ele>92.599998474121094</ele>
        <time>2014-03-30T04:32:49Z</time>
      </trkpt>
      <trkpt lat="13.495675390586257" lon="99.566430207341909">
        <ele>87.599998474121094</ele>
        <time>2014-03-30T04:33:02Z</time>
      </trkpt>
      <trkpt lat="13.495947467163205" lon="99.56654847599566">
        <ele>84</ele>
        <time>2014-03-30T04:33:07Z</time>
      </trkpt>
      <trkpt lat="13.496149387210608" lon="99.56698140129447">
        <ele>87.800003051757812</ele>
        <time>2014-03-30T04:33:18Z</time>
      </trkpt>
      <trkpt lat="13.496044026687741" lon="99.567223554477096">
        <ele>90.199996948242188</ele>
        <time>2014-03-30T04:33:27Z</time>
      </trkpt>
      <trkpt lat="13.49619154818356" lon="99.567941967397928">
        <ele>93.199996948242188</ele>
        <time>2014-03-30T04:33:48Z</time>
      </trkpt>
      <trkpt lat="13.496406627818942" lon="99.569032033905387">
        <ele>87.800003051757812</ele>
        <time>2014-03-30T04:34:07Z</time>
      </trkpt>
      <trkpt lat="13.496488016098738" lon="99.569318443536758">
        <ele>82.800003051757812</ele>
        <time>2014-03-30T04:34:11Z</time>
      </trkpt>
      <trkpt lat="13.496035812422633" lon="99.57002847455442">
        <ele>86.800003051757812</ele>
        <time>2014-03-30T04:34:27Z</time>
      </trkpt>
      <trkpt lat="13.495925003662705" lon="99.57064270041883">
        <ele>82</ele>
        <time>2014-03-30T04:34:38Z</time>
      </trkpt>
      <trkpt lat="13.495593834668398" lon="99.570803716778755">
        <ele>87.599998474121094</ele>
        <time>2014-03-30T04:34:45Z</time>
      </trkpt>
      <trkpt lat="13.495415132492781" lon="99.570910586044192">
        <ele>87.800003051757812</ele>
        <time>2014-03-30T04:34:49Z</time>
      </trkpt>
      <trkpt lat="13.495042389258742" lon="99.571332363411784">
        <ele>87.400001525878906</ele>
        <time>2014-03-30T04:35:00Z</time>
      </trkpt>
      <trkpt lat="13.494617510586977" lon="99.571467144414783">
        <ele>90.199996948242188</ele>
        <time>2014-03-30T04:35:11Z</time>
      </trkpt>
      <trkpt lat="13.494432102888823" lon="99.571898141875863">
        <ele>84.800003051757812</ele>
        <time>2014-03-30T04:35:19Z</time>
      </trkpt>
      <trkpt lat="13.494082326069474" lon="99.571904679760337">
        <ele>92.199996948242188</ele>
        <time>2014-03-30T04:35:31Z</time>
      </trkpt>
      <trkpt lat="13.493873197585344" lon="99.572023786604404">
        <ele>92.400001525878906</ele>
        <time>2014-03-30T04:35:38Z</time>
      </trkpt>
      <trkpt lat="13.493771273642778" lon="99.572694422677159">
        <ele>89.599998474121094</ele>
        <time>2014-03-30T04:35:52Z</time>
      </trkpt>
      <trkpt lat="13.493065601214767" lon="99.573070518672466">
        <ele>96</ele>
        <time>2014-03-30T04:36:15Z</time>
      </trkpt>
      <trkpt lat="13.49309409968555" lon="99.573427839204669">
        <ele>93.400001525878906</ele>
        <time>2014-03-30T04:36:24Z</time>
      </trkpt>
      <trkpt lat="13.493500957265496" lon="99.57379873842001">
        <ele>90.199996948242188</ele>
        <time>2014-03-30T04:36:44Z</time>
      </trkpt>
      <trkpt lat="13.493645377457142" lon="99.574194112792611">
        <ele>86.800003051757812</ele>
        <time>2014-03-30T04:36:55Z</time>
      </trkpt>
      <trkpt lat="13.493444211781025" lon="99.574416568502784">
        <ele>90.400001525878906</ele>
        <time>2014-03-30T04:37:02Z</time>
      </trkpt>
      <trkpt lat="13.492726134136319" lon="99.574540536850691">
        <ele>94.400001525878906</ele>
        <time>2014-03-30T04:37:22Z</time>
      </trkpt>
      <trkpt lat="13.492625132203102" lon="99.574676072224975">
        <ele>95.199996948242188</ele>
        <time>2014-03-30T04:37:28Z</time>
      </trkpt>
      <trkpt lat="13.493106923997402" lon="99.575459361076355">
        <ele>86</ele>
        <time>2014-03-30T04:37:43Z</time>
      </trkpt>
      <trkpt lat="13.493089657276869" lon="99.575534211471677">
        <ele>84.599998474121094</ele>
        <time>2014-03-30T04:37:44Z</time>
      </trkpt>
      <trkpt lat="13.492024233564734" lon="99.576918231323361">
        <ele>88.800003051757812</ele>
        <time>2014-03-30T04:38:15Z</time>
      </trkpt>
      <trkpt lat="13.491952987387776" lon="99.577056197449565">
        <ele>87.800003051757812</ele>
        <time>2014-03-30T04:38:18Z</time>
      </trkpt>
      <trkpt lat="13.491604551672935" lon="99.577132891863585">
        <ele>92</ele>
        <time>2014-03-30T04:38:28Z</time>
      </trkpt>
      <trkpt lat="13.490829728543758" lon="99.576973468065262">
        <ele>98.599998474121094</ele>
        <time>2014-03-30T04:38:55Z</time>
      </trkpt>
      <trkpt lat="13.490669885650277" lon="99.577327435836196">
        <ele>95.800003051757812</ele>
        <time>2014-03-30T04:39:05Z</time>
      </trkpt>
      <trkpt lat="13.490445502102375" lon="99.577504377812147">
        <ele>95.400001525878906</ele>
        <time>2014-03-30T04:39:11Z</time>
      </trkpt>
      <trkpt lat="13.489607395604253" lon="99.577723816037178">
        <ele>94.199996948242188</ele>
        <time>2014-03-30T04:39:26Z</time>
      </trkpt>
    </trkseg>
  </trk>

</gpx>
